createdAt,value
2018-07-14T00:01:12.978Z,3.20
2018-07-14T00:06:16.221Z,2.47
2018-07-14T00:11:19.938Z,2.53
2018-07-14T00:16:25.210Z,2.87
2018-07-14T00:21:28.763Z,2.57
2018-07-14T00:26:32.469Z,2.50
2018-07-14T00:31:36.201Z,2.60
2018-07-14T00:36:39.453Z,2.50
2018-07-14T00:41:43.432Z,3.53
2018-07-14T00:46:47.058Z,2.47
2018-07-14T00:51:57.766Z,2.60
2018-07-14T00:57:01.507Z,3.20
2018-07-14T01:02:05.109Z,2.63
2018-07-14T01:07:08.774Z,2.80
2018-07-14T01:12:11.967Z,2.40
2018-07-14T01:17:28.688Z,2.27
2018-07-14T01:22:32.469Z,2.10
2018-07-14T01:27:35.981Z,2.00
2018-07-14T01:32:39.313Z,3.07
2018-07-14T01:37:42.810Z,2.80
2018-07-14T01:42:46.301Z,2.40
2018-07-14T01:47:50.273Z,2.00
2018-07-14T01:52:53.881Z,2.03
2018-07-14T01:57:57.897Z,2.00
2018-07-14T02:03:01.918Z,2.80
2018-07-14T02:08:05.285Z,2.10
2018-07-14T02:13:08.568Z,1.70
2018-07-14T02:18:12.716Z,2.57
2018-07-14T02:23:16.201Z,2.20
2018-07-14T02:28:19.793Z,2.60
2018-07-14T02:33:24.229Z,2.20
2018-07-14T02:38:27.602Z,2.60
2018-07-14T02:43:31.237Z,2.80
2018-07-14T02:48:34.954Z,2.80
2018-07-14T02:53:38.388Z,3.20
2018-07-14T02:58:41.655Z,3.00
2018-07-14T03:03:46.304Z,2.83
2018-07-14T03:08:50.214Z,3.00
2018-07-14T03:13:54.268Z,3.43
2018-07-14T03:18:58.899Z,3.27
2018-07-14T03:24:02.682Z,3.13
2018-07-14T03:29:06.624Z,3.00
2018-07-14T03:34:10.611Z,3.70
2018-07-14T03:39:14.233Z,3.43
2018-07-14T03:44:17.885Z,3.67
2018-07-14T03:49:21.871Z,3.33
2018-07-14T03:54:25.487Z,3.30
2018-07-14T03:59:29.031Z,2.40
2018-07-14T04:04:32.777Z,2.10
2018-07-14T04:09:36.360Z,2.33
2018-07-14T04:14:39.910Z,2.10
2018-07-14T04:19:43.270Z,2.80
2018-07-14T04:24:47.063Z,2.70
2018-07-14T04:29:50.626Z,1.90
2018-07-14T04:34:54.906Z,2.03
2018-07-14T04:39:59.842Z,2.20
2018-07-14T04:45:05.055Z,2.37
2018-07-14T04:50:40.168Z,2.33
2018-07-14T04:55:43.628Z,2.90
2018-07-14T05:00:47.413Z,2.00
2018-07-14T05:05:51.222Z,3.23
2018-07-14T05:10:54.799Z,2.20
2018-07-14T05:15:58.750Z,2.27
2018-07-14T05:21:02.448Z,2.47
2018-07-14T05:26:06.242Z,2.07
2018-07-14T05:31:09.560Z,2.23
2018-07-14T05:36:12.972Z,2.10
2018-07-14T05:41:16.204Z,1.93
2018-07-14T05:46:20.299Z,2.13
2018-07-14T05:51:23.573Z,1.83
2018-07-14T05:56:26.838Z,2.20
2018-07-14T06:01:30.116Z,2.00
2018-07-14T06:06:34.119Z,1.77
2018-07-14T06:11:38.254Z,2.10
2018-07-14T06:16:42.423Z,1.53
2018-07-14T06:21:45.922Z,1.97
2018-07-14T06:26:49.145Z,1.80
2018-07-14T06:31:52.514Z,1.53
2018-07-14T06:36:55.794Z,2.40
2018-07-14T06:41:59.139Z,2.10
2018-07-14T06:47:02.412Z,1.40
2018-07-14T06:52:06.891Z,1.30
2018-07-14T06:57:10.236Z,1.50
2018-07-14T07:02:13.618Z,1.57
2018-07-14T07:07:17.035Z,1.93
2018-07-14T07:12:20.458Z,1.50
2018-07-14T07:17:23.866Z,1.27
2018-07-14T07:22:27.628Z,1.40
2018-07-14T07:27:31.031Z,1.30
2018-07-14T07:32:34.514Z,0.90
2018-07-14T07:37:38.038Z,0.93
2018-07-14T07:42:41.580Z,1.10
2018-07-14T07:47:45.463Z,1.23
2018-07-14T07:52:49.245Z,0.80
2018-07-14T07:57:52.823Z,1.17
2018-07-14T08:02:56.258Z,1.37
2018-07-14T08:08:00.171Z,1.40
2018-07-14T08:13:03.677Z,2.20
2018-07-14T08:18:07.105Z,1.60
2018-07-14T08:23:10.695Z,1.77
2018-07-14T08:28:14.130Z,1.37
2018-07-14T08:33:17.616Z,1.40
2018-07-14T08:38:21.231Z,1.30
2018-07-14T08:43:24.733Z,1.07
2018-07-14T08:48:28.177Z,1.10
2018-07-14T08:53:31.783Z,1.20
2018-07-14T08:58:35.597Z,1.30
2018-07-14T09:03:39.120Z,1.10
2018-07-14T09:08:43.141Z,1.20
2018-07-14T09:13:46.667Z,1.57
2018-07-14T09:18:50.213Z,1.20
2018-07-14T09:23:53.700Z,1.43
2018-07-14T09:28:57.500Z,1.53
2018-07-14T09:34:01.046Z,1.50
2018-07-14T09:39:06.148Z,1.63
2018-07-14T09:44:09.662Z,1.70
2018-07-14T09:49:13.182Z,1.30
2018-07-14T09:54:16.805Z,1.10
2018-07-14T09:59:20.273Z,1.60
2018-07-14T10:04:23.712Z,2.00
2018-07-14T10:09:27.532Z,1.00
2018-07-14T10:14:31.090Z,1.20
2018-07-14T10:19:34.575Z,1.60
2018-07-14T10:24:38.085Z,1.50
2018-07-14T10:29:41.573Z,1.60
2018-07-14T10:34:44.974Z,1.60
2018-07-14T10:39:48.803Z,1.57
2018-07-14T10:44:52.481Z,1.90
2018-07-14T10:49:55.812Z,1.40
2018-07-14T10:54:59.355Z,1.60
2018-07-14T11:00:02.767Z,1.60
2018-07-14T11:05:12.033Z,1.70
2018-07-14T11:10:16.441Z,1.50
2018-07-14T11:15:25.231Z,1.67
2018-07-14T11:20:29.003Z,1.20
2018-07-14T11:25:35.216Z,1.60
2018-07-14T11:30:38.831Z,1.50
2018-07-14T11:35:42.387Z,1.40
2018-07-14T11:40:46.202Z,1.53
2018-07-14T11:45:49.588Z,1.70
2018-07-14T11:50:53.468Z,1.87
2018-07-14T11:55:57.294Z,1.70
2018-07-14T12:01:00.677Z,1.70
2018-07-14T12:06:04.294Z,2.67
2018-07-14T12:11:08.821Z,2.30
2018-07-14T12:16:12.157Z,1.97
2018-07-14T12:21:15.843Z,1.70
2018-07-14T12:26:19.322Z,1.77
2018-07-14T12:31:23.039Z,1.53
2018-07-14T12:36:26.531Z,1.70
2018-07-14T12:41:30.148Z,2.40
2018-07-14T12:46:33.731Z,2.27
2018-07-14T12:51:37.623Z,2.50
2018-07-14T12:56:41.150Z,2.57
2018-07-14T13:01:44.767Z,2.60
2018-07-14T13:06:48.278Z,2.43
2018-07-14T13:11:52.152Z,2.30
2018-07-14T13:16:55.607Z,2.37
2018-07-14T13:21:59.101Z,2.50
2018-07-14T13:27:02.641Z,2.27
2018-07-14T13:32:06.261Z,2.30
2018-07-14T13:37:09.886Z,2.13
2018-07-14T13:42:13.451Z,2.60
2018-07-14T13:47:17.246Z,2.43
2018-07-14T13:52:20.796Z,1.90
2018-07-14T13:57:24.351Z,2.20
2018-07-14T14:02:27.879Z,2.63
2018-07-14T14:07:31.342Z,2.10
2018-07-14T14:12:35.277Z,2.23
2018-07-14T14:17:39.108Z,2.57
2018-07-14T14:22:42.770Z,2.30
2018-07-14T14:27:46.276Z,1.90
2018-07-14T14:32:49.769Z,2.23
2018-07-14T14:37:53.408Z,2.07
2018-07-14T14:42:57.125Z,2.17
2018-07-14T14:48:04.687Z,2.07
2018-07-14T14:53:08.450Z,3.13
2018-07-14T14:58:12.135Z,2.27
2018-07-14T15:03:15.806Z,1.80
2018-07-14T15:08:19.273Z,1.97
2018-07-14T15:13:23.078Z,2.30
2018-07-14T15:18:26.889Z,2.20
2018-07-14T15:23:30.909Z,2.10
2018-07-14T15:28:34.512Z,2.67
2018-07-14T15:33:38.057Z,2.10
2018-07-14T15:38:41.765Z,2.40
2018-07-14T15:43:45.561Z,2.57
2018-07-14T15:48:49.206Z,2.40
2018-07-14T15:53:53.021Z,2.40
2018-07-14T15:58:56.517Z,2.67
2018-07-14T16:03:59.996Z,2.70
2018-07-14T16:09:04.570Z,2.77
2018-07-14T16:14:12.167Z,2.57
2018-07-14T16:19:16.093Z,2.87
2018-07-14T16:24:21.321Z,2.83
2018-07-14T16:29:25.254Z,2.97
2018-07-14T16:34:28.895Z,2.60
2018-07-14T16:39:32.459Z,3.47
2018-07-14T16:44:39.080Z,2.57
2018-07-14T16:49:42.729Z,2.90
2018-07-14T16:54:46.119Z,2.60
2018-07-14T16:59:51.065Z,2.93
2018-07-14T17:04:54.477Z,2.57
2018-07-14T17:09:57.919Z,3.63
2018-07-14T17:15:01.579Z,2.83
2018-07-14T17:20:04.890Z,3.33
2018-07-14T17:25:08.658Z,3.10
2018-07-14T17:30:12.363Z,2.67
2018-07-14T17:35:15.729Z,3.10
2018-07-14T17:40:19.025Z,2.67
2018-07-14T17:45:24.808Z,3.40
2018-07-14T17:50:28.646Z,2.70
2018-07-14T17:55:31.862Z,3.20
2018-07-14T18:00:35.647Z,2.97
2018-07-14T18:05:38.859Z,2.73
2018-07-14T18:10:42.108Z,3.20
2018-07-14T18:15:45.674Z,3.60
2018-07-14T18:20:48.955Z,3.23
2018-07-14T18:25:53.042Z,3.30
2018-07-14T18:30:56.298Z,3.53
2018-07-14T18:35:59.943Z,3.00
2018-07-14T18:41:06.470Z,3.57
2018-07-14T18:46:10.162Z,3.10
2018-07-14T18:51:13.426Z,3.33
2018-07-14T18:56:16.626Z,3.73
2018-07-14T19:01:20.031Z,3.37
2018-07-14T19:06:23.619Z,3.53
2018-07-14T19:11:26.842Z,3.93
2018-07-14T19:16:30.442Z,3.87
2018-07-14T19:21:33.710Z,3.63
2018-07-14T19:26:36.954Z,3.43
2018-07-14T19:31:40.301Z,3.33
2018-07-14T19:36:44.089Z,3.63
2018-07-14T19:41:47.360Z,3.63
2018-07-14T19:46:51.150Z,3.30
2018-07-14T19:51:54.449Z,3.40
2018-07-14T19:56:57.649Z,3.60
2018-07-14T20:02:01.011Z,4.10
2018-07-14T20:07:04.697Z,4.30
2018-07-14T20:12:07.937Z,4.10
2018-07-14T20:17:11.363Z,4.40
2018-07-14T20:22:14.619Z,4.00
2018-07-14T20:27:18.018Z,5.13
2018-07-14T20:32:21.257Z,4.90
2018-07-14T20:37:24.436Z,5.00
2018-07-14T20:42:27.945Z,4.73
2018-07-14T20:47:31.372Z,5.43
2018-07-14T20:52:34.545Z,4.67
2018-07-14T20:57:37.713Z,5.20
2018-07-14T21:02:40.928Z,5.23
2018-07-14T21:07:44.140Z,5.83
2018-07-14T21:12:47.717Z,5.47
2018-07-14T21:17:50.973Z,6.00
2018-07-14T21:22:54.155Z,5.00
2018-07-14T21:27:57.332Z,5.23
2018-07-14T21:33:00.545Z,6.20
2018-07-14T21:38:03.813Z,5.60
2018-07-14T21:43:07.385Z,5.83
2018-07-14T21:48:10.648Z,5.90
2018-07-14T21:53:13.871Z,5.30
2018-07-14T21:58:17.135Z,6.00
2018-07-14T22:03:20.897Z,6.03
2018-07-14T22:08:24.117Z,6.73
2018-07-14T22:13:27.373Z,7.23
2018-07-14T22:18:30.810Z,6.17
2018-07-14T22:23:34.190Z,7.67
2018-07-14T22:28:37.408Z,5.63
2018-07-14T22:34:00.506Z,7.90
2018-07-14T22:39:04.457Z,9.50
2018-07-14T22:44:07.645Z,9.40
2018-07-14T22:49:11.626Z,11.10
2018-07-14T22:54:14.815Z,9.83
2018-07-14T22:59:18.018Z,8.30
2018-07-14T23:04:21.586Z,9.20
2018-07-14T23:09:24.806Z,11.47
2018-07-14T23:14:28.044Z,6.80
2018-07-14T23:19:31.629Z,3.93
2018-07-14T23:24:35.137Z,3.50
2018-07-14T23:29:38.336Z,3.90
2018-07-14T23:34:41.719Z,4.10
2018-07-14T23:39:44.972Z,3.03
2018-07-14T23:44:48.864Z,5.27
2018-07-14T23:49:52.654Z,4.30
2018-07-14T23:54:57.035Z,4.30
